ADDS METAR Data INFO
IDs: Format: Raw Decoded Include TAF

Data at: 0747 UTC 23 Jul 2018

KL35 230735Z AUTO 00000KT 10SM CLR 12/04 A3040 RMK AO2
KL35 230715Z AUTO 00000KT 10SM CLR 12/03 A3040 RMK AO2
KL35 230655Z AUTO 00000KT 10SM CLR 13/04 A3041 RMK AO2
KL35 230635Z AUTO 00000KT 10SM CLR 13/05 A3041 RMK AO2
KL35 230615Z AUTO 00000KT 10SM CLR 13/05 A3041 RMK AO2
KL35 230555Z AUTO 00000KT 10SM CLR 14/06 A3041 RMK AO2
KL35 230535Z AUTO 00000KT 10SM CLR 15/06 A3040 RMK AO2
KL35 230515Z AUTO 00000KT 10SM CLR 16/07 A3041 RMK AO2
KL35 230455Z AUTO 00000KT 10SM CLR 16/07 A3040 RMK AO2
KL35 230435Z AUTO 00000KT 10SM CLR 17/06 A3040 RMK AO2
KL35 230415Z AUTO 00000KT 10SM CLR 18/07 A3039 RMK AO2
KL35 230355Z AUTO 00000KT 10SM CLR 20/06 A3038 RMK AO2
KL35 230335Z AUTO 00000KT 10SM CLR 20/07 A3038 RMK AO2
KL35 230315Z AUTO 00000KT 10SM CLR 20/07 A3037 RMK AO2
KL35 230255Z AUTO 00000KT 10SM CLR 21/08 A3037 RMK AO2
KL35 230235Z AUTO 27006KT 10SM SCT070 22/07 A3036 RMK AO2
KL35 230215Z AUTO 27010KT 10SM SCT050 BKN070 23/08 A3036 RMK AO2
KL35 230155Z AUTO 26010KT 10SM SCT050 SCT060 OVC070 24/08 A3036 RMK AO2
KL35 230135Z AUTO 26009KT 10SM OVC070 24/08 A3035 RMK AO2
KL35 230115Z AUTO 26010KT 10SM BKN070 BKN085 25/09 A3034 RMK AO2
KL35 230055Z AUTO 00000KT 10SM SCT085 25/08 A3034 RMK AO2
KL35 230035Z AUTO 35003KT 10SM SCT070 25/08 A3035 RMK AO2
KL35 230015Z AUTO 29006KT 10SM SCT070 26/09 A3035 RMK AO2
KL35 222355Z AUTO 31006KT 10SM SCT085 25/08 A3036 RMK AO2
KL35 222335Z AUTO 32004KT 10SM BKN085 25/08 A3036 RMK AO2
KL35 222315Z AUTO 01004KT 10SM SCT065 BKN075 BKN100 25/08 A3036 RMK AO2
KL35 222255Z AUTO 02003KT 10SM BKN065 BKN085 25/08 A3036 RMK AO2
KL35 222235Z AUTO 00000KT 10SM SCT065 SCT075 25/09 A3037 RMK AO2
KL35 222215Z AUTO 10003KT 10SM BKN060 BKN080 BKN120 25/09 A3037 RMK AO2
KL35 222155Z AUTO 08008KT 10SM BKN060 BKN090 BKN120 25/09 A3038 RMK AO2
KL35 222135Z AUTO 02003KT 10SM SCT060 SCT100 26/09 A3037 RMK AO2
KL35 222115Z AUTO 03008KT 10SM SCT070 25/09 A3038 RMK AO2
KL35 222055Z AUTO 00000KT 10SM SCT070 25/09 A3039 RMK AO2
KL35 222035Z AUTO 06004KT 10SM SCT065 SCT085 26/10 A3039 RMK AO2
KL35 222015Z AUTO 09009KT 10SM SCT055 SCT085 26/10 A3039 RMK AO2
KL35 221955Z AUTO 03006KT 10SM SCT055 BKN080 23/10 A3039 RMK AO2
KL35 221935Z AUTO 02004KT 10SM SCT055 BKN065 24/10 A3039 RMK AO2
KL35 221915Z AUTO 08009KT 10SM SCT050 SCT065 25/10 A3039 RMK AO2
KL35 221855Z AUTO 04007KT 10SM CLR 25/10 A3040 RMK AO2
KL35 221835Z AUTO 04007KT 10SM CLR 24/10 A3039 RMK AO2
KL35 221815Z AUTO 07010G14KT 10SM CLR 24/10 A3039 RMK AO2
KL35 221755Z AUTO 06007KT 044V104 10SM CLR 23/10 A3039 RMK AO2
KL35 221735Z AUTO 08008KT 10SM CLR 23/10 A3039 RMK AO2
KL35 221715Z AUTO 08007KT 10SM CLR 23/07 A3039 RMK AO2
KL35 221655Z AUTO 06008KT 10SM CLR 23/07 A3038 RMK AO2
KL35 221635Z AUTO 00000KT 10SM CLR 22/05 A3038 RMK AO2
KL35 221615Z AUTO 00000KT 10SM CLR 22/05 A3038 RMK AO2
KL35 221555Z AUTO 28003KT 10SM CLR 21/05 A3039 RMK AO2
KL35 221535Z AUTO 00000KT 10SM CLR 21/06 A3038 RMK AO2
KL35 221515Z AUTO 28003KT 10SM CLR 18/08 A3039 RMK AO2
KL35 221455Z AUTO 00000KT 10SM CLR 16/10 A3039 RMK AO2
KL35 221435Z AUTO 00000KT 10SM CLR 15/10 A3039 RMK AO2
KL35 221415Z AUTO 00000KT 10SM CLR 13/08 A3038 RMK AO2
KL35 221355Z AUTO 00000KT 10SM CLR 11/08 A3038 RMK AO2
KL35 221335Z AUTO 00000KT 10SM CLR 10/07 A3038 RMK AO2
KL35 221315Z AUTO 00000KT 10SM CLR 09/07 A3038 RMK AO2
KL35 221255Z AUTO 00000KT 10SM CLR 09/07 A3037 RMK AO2
KL35 221235Z AUTO 00000KT 10SM CLR 09/07 A3036 RMK AO2
KL35 221215Z AUTO 00000KT 10SM CLR 10/07 A3036 RMK AO2
KL35 221155Z AUTO 00000KT 10SM CLR 10/07 A3036 RMK AO2
KL35 221135Z AUTO 00000KT 10SM CLR 10/07 A3036 RMK AO2
KL35 221115Z AUTO 00000KT 10SM CLR 10/08 A3035 RMK AO2
KL35 221055Z AUTO 00000KT 10SM CLR 11/08 A3035 RMK AO2
KL35 221035Z AUTO 00000KT 10SM CLR 11/08 A3035 RMK AO2
KL35 221015Z AUTO 00000KT 10SM CLR 11/08 A3035 RMK AO2
KL35 220955Z AUTO 00000KT 10SM CLR 11/08 A3034 RMK AO2
KL35 220935Z AUTO 00000KT 10SM CLR 11/08 A3035 RMK AO2
KL35 220915Z AUTO 00000KT 10SM CLR 12/08 A3034 RMK AO2
KL35 220855Z AUTO 00000KT 10SM CLR 12/08 A3035 RMK AO2
KL35 220835Z AUTO 00000KT 10SM CLR 12/08 A3035 RMK AO2
KL35 220815Z AUTO 00000KT 10SM CLR 13/09 A3035 RMK AO2
KL35 220755Z AUTO 00000KT 10SM CLR 13/09 A3036 RMK AO2
KL35 220735Z AUTO 00000KT 10SM CLR 13/09 A3036 RMK AO2
KL35 220715Z AUTO 00000KT 10SM CLR 14/09 A3036 RMK AO2
KL35 220655Z AUTO 00000KT 10SM CLR 14/10 A3037 RMK AO2
KL35 220635Z AUTO 00000KT 10SM CLR 15/10 A3037 RMK AO2
KL35 220615Z AUTO 00000KT 10SM CLR 15/10 A3037 RMK AO2
KL35 220555Z AUTO 00000KT 10SM CLR 16/10 A3036 RMK AO2
KL35 220535Z AUTO 00000KT 10SM CLR 17/11 A3036 RMK AO2
KL35 220515Z AUTO 00000KT 10SM CLR 17/11 A3036 RMK AO2
KL35 220455Z AUTO 00000KT 10SM CLR 17/11 A3036 RMK AO2
KL35 220435Z AUTO 26003KT 10SM CLR 17/11 A3036 RMK AO2
KL35 220415Z AUTO 25003KT 10SM CLR 17/11 A3035 RMK AO2
KL35 220355Z AUTO 28006KT 10SM CLR 17/11 A3034 RMK AO2
KL35 220335Z AUTO 26005KT 10SM CLR 18/11 A3033 RMK AO2
KL35 220315Z AUTO 26004KT 10SM CLR 18/11 A3032 RMK AO2
KL35 220255Z AUTO 24005KT 10SM CLR 19/11 A3032 RMK AO2
KL35 220235Z AUTO 27007KT 10SM CLR 20/11 A3031 RMK AO2
KL35 220215Z AUTO 26007KT 10SM CLR 20/11 A3031 RMK AO2
KL35 220155Z AUTO 27010KT 10SM CLR 21/10 A3031 RMK AO2
KL35 220135Z AUTO 26008KT 10SM SCT055 22/10 A3030 RMK AO2
KL35 220115Z AUTO 27011KT 10SM SCT055 22/11 A3030 RMK AO2
KL35 220055Z AUTO 27010KT 10SM CLR 23/10 A3030 RMK AO2
KL35 220035Z AUTO 26010G14KT 10SM SCT055 23/10 A3030 RMK AO2
KL35 220015Z AUTO 26008KT 10SM CLR 23/11 A3030 RMK AO2
KL35 212355Z AUTO 26008KT 10SM SCT050 23/10 A3030 RMK AO2
KL35 212335Z AUTO 28009KT 10SM SCT050 24/10 A3029 RMK AO2
KL35 212315Z AUTO 22005KT 10SM SCT049 23/11 A3031 RMK AO2
KL35 212255Z AUTO 00000KT 10SM OVC049 22/11 A3031 RMK AO2
KL35 212235Z AUTO 27008KT 10SM BKN049 23/11 A3031 RMK AO2
KL35 212215Z AUTO 26008G15KT 10SM CLR 23/12 A3031 RMK AO2
KL35 212150Z AUTO 26008KT 10SM SCT075 23/11 A3031 RMK AO2
KL35 212135Z AUTO 27012G15KT 10SM SCT075 25/10 A3030 RMK AO2
KL35 212115Z AUTO 22007KT 10SM CLR 24/10 A3031 RMK AO2
KL35 212055Z AUTO 27009KT 10SM CLR 24/10 A3031 RMK AO2
KL35 212035Z AUTO 27008KT 10SM CLR 24/11 A3031 RMK AO2
KL35 212015Z AUTO 26009KT 10SM SCT048 23/11 A3031 RMK AO2
KL35 211955Z AUTO 26010KT 10SM SCT048 SCT050 23/11 A3032 RMK AO2